createdAt,value
2023-03-31T00:00:53.789Z,5.90
2023-03-31T00:03:25.124Z,4.60
2023-03-31T00:05:58.559Z,4.65
2023-03-31T00:08:30.771Z,4.60
2023-03-31T00:11:02.211Z,4.18
2023-03-31T00:13:30.948Z,4.60
2023-03-31T00:16:00.855Z,4.28
2023-03-31T00:18:28.324Z,4.55
2023-03-31T00:21:02.621Z,5.00
2023-03-31T00:23:29.952Z,4.43
2023-03-31T00:25:57.381Z,4.65
2023-03-31T00:28:24.746Z,4.03
2023-03-31T00:30:53.024Z,4.90
2023-03-31T00:33:21.277Z,5.20
2023-03-31T00:35:52.211Z,4.25
2023-03-31T00:38:22.146Z,6.25
2023-03-31T00:40:51.225Z,4.53
2023-03-31T00:43:36.271Z,5.15
2023-03-31T00:46:19.174Z,4.78
2023-03-31T00:48:54.063Z,4.03
2023-03-31T00:51:24.409Z,5.00
2023-03-31T00:53:59.979Z,5.13
2023-03-31T00:56:30.659Z,4.13
2023-03-31T00:59:02.533Z,4.72
2023-03-31T01:01:30.901Z,3.92
2023-03-31T01:03:59.379Z,4.47
2023-03-31T01:06:30.987Z,3.92
2023-03-31T01:08:58.660Z,3.97
2023-03-31T01:11:28.310Z,4.22
2023-03-31T01:13:56.843Z,4.38
2023-03-31T01:16:25.553Z,4.15
2023-03-31T01:18:53.174Z,4.13
2023-03-31T01:21:57.149Z,4.63
2023-03-31T01:25:01.833Z,4.30
2023-03-31T01:27:48.965Z,3.78
2023-03-31T01:30:42.442Z,3.58
2023-03-31T01:34:15.514Z,4.00
2023-03-31T01:37:06.942Z,3.53
2023-03-31T01:39:40.097Z,3.55
2023-03-31T01:42:32.227Z,3.75
2023-03-31T01:45:16.932Z,2.42
2023-03-31T01:47:58.304Z,3.42
2023-03-31T01:50:31.389Z,3.28
2023-03-31T01:53:28.809Z,2.92
2023-03-31T01:56:15.486Z,2.95
2023-03-31T01:58:54.892Z,2.72
2023-03-31T02:01:37.477Z,3.22
2023-03-31T02:04:19.367Z,3.80
2023-03-31T02:06:53.309Z,4.18
2023-03-31T02:09:25.184Z,4.20
2023-03-31T02:11:54.540Z,4.18
2023-03-31T02:14:25.918Z,3.70
2023-03-31T02:17:02.727Z,4.13
2023-03-31T02:19:39.719Z,4.25
2023-03-31T02:22:09.060Z,4.20
2023-03-31T02:24:40.367Z,4.03
2023-03-31T02:27:14.358Z,4.10
2023-03-31T02:29:42.182Z,4.30
2023-03-31T02:32:09.461Z,5.15
2023-03-31T02:34:37.064Z,4.50
2023-03-31T02:37:04.464Z,4.20
2023-03-31T02:39:36.419Z,4.78
2023-03-31T02:42:07.755Z,4.28
2023-03-31T02:44:36.625Z,5.18
2023-03-31T02:47:11.853Z,6.40
2023-03-31T02:49:44.503Z,4.38
2023-03-31T02:52:20.907Z,4.60
2023-03-31T02:57:39.587Z,4.15
2023-03-31T03:00:48.711Z,4.38
2023-03-31T03:03:43.280Z,4.85
2023-03-31T03:06:38.284Z,5.05
2023-03-31T03:09:17.286Z,4.07
2023-03-31T03:12:07.823Z,5.30
2023-03-31T03:14:49.358Z,7.72
2023-03-31T03:17:37.105Z,6.70
2023-03-31T03:20:08.645Z,6.40
2023-03-31T03:22:37.809Z,7.40
2023-03-31T03:25:10.647Z,9.35
2023-03-31T03:27:38.401Z,9.52
2023-03-31T03:30:08.523Z,8.68
2023-03-31T03:32:36.289Z,8.93
2023-03-31T03:35:05.825Z,7.60
2023-03-31T03:37:34.049Z,7.90
2023-03-31T03:40:01.447Z,7.93
2023-03-31T03:42:28.810Z,9.18
2023-03-31T03:44:56.676Z,7.07
2023-03-31T03:47:24.267Z,7.05
2023-03-31T03:49:51.669Z,7.95
2023-03-31T03:52:19.019Z,6.55
2023-03-31T03:54:46.324Z,7.82
2023-03-31T03:57:13.675Z,7.25
2023-03-31T03:59:41.362Z,8.55
2023-03-31T04:02:08.864Z,6.63
2023-03-31T04:04:36.345Z,6.75
2023-03-31T04:07:03.826Z,7.32
2023-03-31T04:09:31.753Z,5.65
2023-03-31T04:11:59.160Z,6.57
2023-03-31T04:14:26.568Z,6.00
2023-03-31T04:16:56.463Z,7.07
2023-03-31T04:19:26.105Z,5.90
2023-03-31T04:21:59.157Z,6.70
2023-03-31T04:24:31.989Z,8.70
2023-03-31T04:27:00.712Z,8.73
2023-03-31T04:29:28.092Z,7.22
2023-03-31T04:31:59.742Z,7.78
2023-03-31T04:34:35.462Z,8.20
2023-03-31T04:37:03.855Z,6.47
2023-03-31T04:39:31.718Z,6.50
2023-03-31T04:42:00.351Z,7.75
2023-03-31T04:44:28.062Z,5.55
2023-03-31T04:46:56.381Z,5.25
2023-03-31T04:49:23.976Z,5.55
2023-03-31T04:51:51.424Z,4.97
2023-03-31T04:54:18.805Z,4.63
2023-03-31T04:56:46.163Z,4.70
2023-03-31T04:59:13.909Z,5.25
2023-03-31T05:01:45.166Z,6.18
2023-03-31T05:04:13.048Z,4.57
2023-03-31T05:06:40.437Z,4.90
2023-03-31T05:09:09.766Z,3.50
2023-03-31T05:11:38.480Z,3.67
2023-03-31T05:14:06.086Z,3.20
2023-03-31T05:16:34.671Z,4.15
2023-03-31T05:19:02.250Z,3.70
2023-03-31T05:21:30.703Z,3.35
2023-03-31T05:23:58.517Z,2.92
2023-03-31T05:26:26.534Z,3.58
2023-03-31T05:28:54.350Z,2.90
2023-03-31T05:31:22.355Z,3.17
2023-03-31T05:33:50.091Z,3.53
2023-03-31T05:36:18.678Z,3.38
2023-03-31T05:38:47.759Z,3.75
2023-03-31T05:41:17.015Z,3.33
2023-03-31T05:43:44.544Z,2.88
2023-03-31T05:46:12.405Z,2.88
2023-03-31T05:48:39.940Z,2.63
2023-03-31T05:51:07.496Z,3.55
2023-03-31T05:53:34.940Z,3.20
2023-03-31T05:56:06.206Z,3.47
2023-03-31T05:58:36.484Z,5.00
2023-03-31T06:01:12.670Z,3.78
2023-03-31T06:03:42.277Z,4.72
2023-03-31T06:06:10.819Z,4.82
2023-03-31T06:08:38.245Z,4.53
2023-03-31T06:11:07.778Z,5.13
2023-03-31T06:13:36.487Z,3.78
2023-03-31T06:16:04.300Z,4.47
2023-03-31T06:18:33.820Z,4.90
2023-03-31T06:21:01.439Z,4.22
2023-03-31T06:23:28.954Z,4.63
2023-03-31T06:26:03.793Z,4.43
2023-03-31T06:28:31.507Z,4.85
2023-03-31T06:31:07.983Z,5.25
2023-03-31T06:33:36.505Z,4.35
2023-03-31T06:36:05.793Z,4.45
2023-03-31T06:38:34.918Z,4.45
2023-03-31T06:41:02.577Z,4.97
2023-03-31T06:43:30.309Z,4.35
2023-03-31T06:45:57.880Z,4.25
2023-03-31T06:48:25.951Z,3.58
2023-03-31T06:50:54.547Z,3.58
2023-03-31T06:53:22.819Z,3.80
2023-03-31T06:55:50.307Z,4.30
2023-03-31T06:58:17.692Z,4.40
2023-03-31T07:00:46.772Z,4.47
2023-03-31T07:03:19.353Z,6.07
2023-03-31T07:05:54.393Z,5.25
2023-03-31T07:08:23.009Z,4.28
2023-03-31T07:10:56.079Z,6.43
2023-03-31T07:13:24.111Z,5.57
2023-03-31T07:15:51.545Z,7.00
2023-03-31T07:18:19.375Z,5.07
2023-03-31T07:20:50.690Z,5.38
2023-03-31T07:23:19.093Z,6.25
2023-03-31T07:25:47.358Z,5.63
2023-03-31T07:28:14.673Z,7.03
2023-03-31T07:30:42.003Z,5.53
2023-03-31T07:33:09.903Z,5.03
2023-03-31T07:35:41.016Z,5.82
2023-03-31T07:38:12.284Z,8.00
2023-03-31T07:40:40.255Z,6.50
2023-03-31T07:43:07.950Z,7.18
2023-03-31T07:45:36.047Z,5.43
2023-03-31T07:48:03.606Z,7.13
2023-03-31T07:50:31.322Z,6.20
2023-03-31T07:52:58.610Z,6.28
2023-03-31T07:55:27.417Z,4.90
2023-03-31T07:57:54.826Z,6.07
2023-03-31T08:00:22.515Z,5.88
2023-03-31T08:02:50.133Z,5.78
2023-03-31T08:05:19.341Z,5.75
2023-03-31T08:07:48.174Z,7.30
2023-03-31T08:10:22.648Z,5.60
2023-03-31T08:12:50.372Z,6.45
2023-03-31T08:15:18.150Z,6.78
2023-03-31T08:17:45.772Z,8.65
2023-03-31T08:20:13.446Z,7.72
2023-03-31T08:22:41.320Z,7.85
2023-03-31T08:25:09.620Z,7.38
2023-03-31T08:27:39.429Z,7.97
2023-03-31T08:30:11.813Z,7.22
2023-03-31T08:32:39.257Z,6.28
2023-03-31T08:35:07.465Z,7.38
2023-03-31T08:37:37.456Z,7.20
2023-03-31T08:40:12.583Z,6.82
2023-03-31T08:42:49.648Z,7.18
2023-03-31T08:45:24.539Z,6.22
2023-03-31T08:48:00.826Z,8.20
2023-03-31T08:50:32.093Z,6.28
2023-03-31T08:53:14.005Z,6.93
2023-03-31T08:55:49.107Z,6.63
2023-03-31T08:58:19.266Z,5.40
2023-03-31T09:01:06.458Z,5.05
2023-03-31T09:03:53.294Z,6.70
2023-03-31T09:06:51.545Z,8.02
2023-03-31T09:09:46.933Z,6.28
2023-03-31T09:12:35.883Z,6.40
2023-03-31T09:15:15.535Z,6.40
2023-03-31T09:17:51.499Z,6.72
2023-03-31T09:20:20.962Z,6.18
2023-03-31T09:22:55.935Z,6.22
2023-03-31T09:25:28.738Z,6.10
2023-03-31T09:27:59.179Z,6.95
2023-03-31T09:30:29.357Z,5.72
2023-03-31T09:33:12.281Z,6.50
2023-03-31T09:35:39.781Z,6.15
2023-03-31T09:38:09.976Z,6.10
2023-03-31T09:40:37.540Z,5.70
2023-03-31T09:43:08.234Z,6.43
2023-03-31T09:45:38.327Z,5.38
2023-03-31T09:48:13.389Z,5.80
2023-03-31T09:50:49.304Z,5.28
2023-03-31T09:53:46.145Z,6.55
2023-03-31T09:56:14.527Z,6.05
2023-03-31T09:58:44.121Z,7.10
2023-03-31T10:01:14.166Z,5.45
2023-03-31T10:03:52.826Z,5.97
2023-03-31T10:06:21.674Z,6.78
2023-03-31T10:08:57.693Z,6.28
2023-03-31T10:11:27.348Z,6.15
2023-03-31T10:14:04.653Z,5.00
2023-03-31T10:16:35.247Z,5.70
2023-03-31T10:19:16.065Z,5.88
2023-03-31T10:21:48.421Z,5.82
2023-03-31T10:24:19.651Z,6.30
2023-03-31T10:26:54.333Z,7.10
2023-03-31T10:29:31.869Z,5.97
2023-03-31T10:32:05.484Z,6.75
2023-03-31T10:34:42.273Z,6.30
2023-03-31T10:37:17.637Z,5.50
2023-03-31T10:39:47.591Z,5.30
2023-03-31T10:42:25.710Z,5.43
2023-03-31T10:45:36.468Z,6.20
2023-03-31T10:48:07.037Z,4.60
2023-03-31T10:50:36.781Z,4.57
2023-03-31T10:53:10.037Z,5.03
2023-03-31T10:55:53.036Z,5.20
2023-03-31T10:58:32.962Z,4.53
2023-03-31T11:01:12.398Z,4.70
2023-03-31T11:04:14.805Z,3.42
2023-03-31T11:06:54.314Z,3.85
2023-03-31T11:09:51.904Z,3.45
2023-03-31T11:12:31.894Z,3.72
2023-03-31T11:15:01.923Z,2.50
2023-03-31T11:17:42.981Z,2.65
2023-03-31T11:20:25.646Z,3.47
2023-03-31T11:22:58.473Z,1.80
2023-03-31T11:25:32.086Z,1.80
2023-03-31T11:28:11.754Z,2.05
2023-03-31T11:31:03.646Z,2.38
2023-03-31T11:34:01.967Z,1.52
2023-03-31T11:36:49.539Z,1.00
2023-03-31T11:39:42.954Z,1.13
2023-03-31T11:42:53.642Z,1.05
2023-03-31T11:45:30.192Z,1.33
2023-03-31T11:48:06.948Z,1.00
2023-03-31T11:50:40.054Z,2.25
2023-03-31T11:53:18.955Z,5.95
2023-03-31T11:55:48.790Z,2.53
2023-03-31T11:58:35.960Z,1.08
2023-03-31T12:01:29.696Z,1.75
2023-03-31T12:04:37.825Z,1.05
2023-03-31T12:07:34.111Z,1.25
2023-03-31T12:10:14.401Z,0.90
2023-03-31T12:12:55.866Z,1.00
2023-03-31T12:15:32.745Z,1.20
2023-03-31T12:18:12.684Z,1.40
2023-03-31T12:20:44.643Z,0.93
2023-03-31T12:23:17.637Z,1.00
2023-03-31T12:26:01.890Z,1.60
2023-03-31T12:28:33.770Z,1.20
2023-03-31T12:31:05.858Z,1.20
2023-03-31T12:33:38.774Z,1.10
2023-03-31T12:36:09.718Z,1.55
2023-03-31T12:38:49.445Z,1.35
2023-03-31T12:41:39.987Z,1.40
2023-03-31T12:44:22.196Z,1.30
2023-03-31T12:47:07.874Z,1.10
2023-03-31T12:49:50.654Z,1.45
2023-03-31T12:52:58.893Z,1.40
2023-03-31T12:55:29.865Z,1.38
2023-03-31T12:58:36.320Z,1.25
2023-03-31T13:01:17.905Z,2.22
2023-03-31T13:04:07.420Z,2.05
2023-03-31T13:06:38.086Z,1.67
2023-03-31T13:09:08.941Z,1.42
2023-03-31T13:11:36.662Z,1.73
2023-03-31T13:14:13.464Z,2.00
2023-03-31T13:16:41.082Z,1.67
2023-03-31T13:19:13.055Z,1.50
2023-03-31T13:21:58.125Z,2.17
2023-03-31T13:24:27.270Z,1.10
2023-03-31T13:26:59.708Z,1.73
2023-03-31T13:29:43.627Z,1.58
2023-03-31T13:32:23.415Z,1.52
2023-03-31T13:35:26.195Z,1.85
2023-03-31T13:38:02.721Z,1.50
2023-03-31T13:40:49.170Z,1.40
2023-03-31T13:44:02.364Z,1.27
2023-03-31T13:46:56.204Z,1.58
2023-03-31T13:49:45.276Z,2.15
2023-03-31T13:52:13.855Z,2.30
2023-03-31T13:55:13.921Z,2.65
2023-03-31T13:58:33.700Z,1.63
2023-03-31T14:01:15.119Z,1.60
2023-03-31T14:04:05.919Z,1.80
2023-03-31T14:06:50.454Z,1.85
2023-03-31T14:09:27.245Z,2.58
2023-03-31T14:11:54.993Z,2.50
2023-03-31T14:14:24.632Z,2.92
2023-03-31T14:16:59.769Z,1.92
2023-03-31T14:19:42.487Z,1.60
2023-03-31T14:22:34.935Z,1.60
2023-03-31T14:25:27.146Z,1.77
2023-03-31T14:28:09.754Z,1.70
2023-03-31T14:31:03.118Z,1.58
2023-03-31T14:34:12.662Z,1.42
2023-03-31T14:37:00.526Z,1.52
2023-03-31T14:39:42.143Z,1.63
2023-03-31T14:42:18.445Z,1.13
2023-03-31T14:44:48.837Z,1.40
2023-03-31T14:47:24.589Z,1.58
2023-03-31T14:50:01.542Z,1.90
2023-03-31T14:52:34.050Z,1.42
2023-03-31T14:55:02.038Z,1.77
2023-03-31T14:57:36.013Z,1.50
2023-03-31T15:00:08.457Z,1.70
2023-03-31T15:02:41.388Z,1.73
2023-03-31T15:05:20.490Z,1.90
2023-03-31T15:07:48.857Z,2.03
2023-03-31T15:10:22.542Z,1.90
2023-03-31T15:12:51.784Z,2.30
2023-03-31T15:15:21.338Z,1.55
2023-03-31T15:17:49.007Z,1.80
2023-03-31T15:20:37.389Z,1.83
2023-03-31T15:23:24.995Z,1.60
2023-03-31T15:25:58.495Z,0.98
2023-03-31T15:28:31.985Z,1.02
2023-03-31T15:31:09.580Z,1.23
2023-03-31T15:33:42.065Z,1.33
2023-03-31T15:36:12.452Z,1.30
2023-03-31T15:38:40.750Z,1.60
2023-03-31T15:41:13.869Z,1.33
2023-03-31T15:44:22.147Z,1.20
2023-03-31T15:47:00.046Z,1.63
2023-03-31T15:49:28.122Z,1.10
2023-03-31T15:51:57.425Z,1.52
2023-03-31T15:54:40.441Z,0.95
2023-03-31T15:57:09.780Z,0.95
2023-03-31T15:59:55.844Z,1.45
2023-03-31T16:02:39.712Z,1.23
2023-03-31T16:05:10.865Z,1.00
2023-03-31T16:07:44.614Z,0.70
2023-03-31T16:10:22.238Z,0.90
2023-03-31T16:13:02.549Z,0.70
2023-03-31T16:15:44.405Z,1.05
2023-03-31T16:18:31.969Z,0.60
2023-03-31T16:21:03.579Z,0.80
2023-03-31T16:23:46.521Z,1.00
2023-03-31T16:26:22.023Z,0.80
2023-03-31T16:28:54.159Z,0.90
2023-03-31T16:32:06.508Z,0.70
2023-03-31T16:34:33.968Z,1.08
2023-03-31T16:37:09.008Z,0.75
2023-03-31T16:39:37.669Z,0.90
2023-03-31T16:42:05.343Z,1.05
2023-03-31T16:44:32.706Z,0.90
2023-03-31T16:47:00.431Z,0.68
2023-03-31T16:49:29.404Z,0.80
2023-03-31T16:51:56.993Z,0.95
2023-03-31T16:54:25.724Z,1.02
2023-03-31T16:56:53.153Z,1.00
2023-03-31T16:59:20.818Z,0.80
2023-03-31T17:01:48.218Z,0.80
2023-03-31T17:04:15.623Z,0.70
2023-03-31T17:06:43.490Z,1.20
2023-03-31T17:09:11.232Z,1.20
2023-03-31T17:11:38.612Z,1.45
2023-03-31T17:14:06.193Z,1.10
2023-03-31T17:16:45.020Z,1.33
2023-03-31T17:19:17.362Z,1.30
2023-03-31T17:21:45.595Z,1.60
2023-03-31T17:24:13.097Z,1.23
2023-03-31T17:26:40.487Z,1.33
2023-03-31T17:29:08.038Z,1.33
2023-03-31T17:31:35.812Z,1.42
2023-03-31T17:34:03.187Z,1.65
2023-03-31T17:36:30.855Z,1.75
2023-03-31T17:39:00.251Z,1.75
2023-03-31T17:41:29.806Z,2.25
2023-03-31T17:43:58.251Z,1.73
2023-03-31T17:46:25.630Z,1.67
2023-03-31T17:48:54.711Z,1.75
2023-03-31T17:51:23.312Z,1.40
2023-03-31T17:53:51.039Z,1.88
2023-03-31T17:56:18.548Z,1.70
2023-03-31T17:58:46.931Z,2.25
2023-03-31T18:01:14.936Z,4.97
2023-03-31T18:03:42.495Z,1.73
2023-03-31T18:06:13.247Z,1.60
2023-03-31T18:08:43.019Z,1.90
2023-03-31T18:11:11.495Z,5.43
2023-03-31T18:13:39.992Z,2.42
2023-03-31T18:16:13.186Z,2.60
2023-03-31T18:18:41.695Z,2.13
2023-03-31T18:21:13.365Z,1.60
2023-03-31T18:23:42.148Z,1.95
2023-03-31T18:26:11.786Z,2.42
2023-03-31T18:28:43.433Z,2.38
2023-03-31T18:31:12.483Z,2.55
2023-03-31T18:33:41.816Z,2.45
2023-03-31T18:36:17.144Z,2.50
2023-03-31T18:38:47.103Z,3.65
2023-03-31T18:41:15.280Z,2.90
2023-03-31T18:43:45.256Z,5.25
2023-03-31T18:46:14.656Z,2.63
2023-03-31T18:48:42.457Z,3.50
2023-03-31T18:51:09.928Z,3.45
2023-03-31T18:53:37.863Z,2.90
2023-03-31T18:56:05.367Z,3.83
2023-03-31T18:58:32.844Z,8.50
2023-03-31T19:02:15.408Z,4.68
2023-03-31T19:04:42.941Z,4.65
2023-03-31T19:07:10.884Z,4.10
2023-03-31T19:09:38.875Z,4.30
2023-03-31T19:12:06.857Z,4.30
2023-03-31T19:15:07.232Z,5.47
2023-03-31T19:17:34.596Z,5.40
2023-03-31T19:20:03.431Z,7.25
2023-03-31T19:22:30.914Z,6.35
2023-03-31T19:24:58.441Z,7.07
2023-03-31T19:27:25.821Z,6.40
2023-03-31T19:29:53.471Z,5.38
2023-03-31T19:32:21.221Z,6.53
2023-03-31T19:34:49.320Z,5.68
2023-03-31T19:37:16.710Z,6.05
2023-03-31T19:39:44.642Z,6.32
2023-03-31T19:42:12.349Z,5.43
2023-03-31T19:44:39.886Z,6.95
2023-03-31T19:52:50.857Z,5.82
2023-03-31T19:55:18.308Z,5.57
2023-03-31T19:57:46.038Z,4.85
2023-03-31T20:01:14.319Z,5.63
2023-03-31T20:04:17.328Z,6.28
2023-03-31T20:06:45.291Z,7.38
2023-03-31T20:09:13.533Z,7.68
2023-03-31T20:11:43.360Z,9.52
2023-03-31T20:14:11.364Z,17.27
2023-03-31T20:16:39.010Z,9.30
2023-03-31T20:19:08.023Z,9.23
2023-03-31T20:21:37.704Z,9.73
2023-03-31T20:24:06.069Z,10.05
2023-03-31T20:26:36.249Z,8.98
2023-03-31T20:29:04.149Z,8.93
2023-03-31T20:31:37.792Z,9.82
2023-03-31T20:34:12.113Z,9.93
2023-03-31T20:36:40.280Z,14.15
2023-03-31T20:39:07.839Z,16.27
2023-03-31T20:41:40.211Z,36.90
2023-03-31T20:44:12.032Z,9.07
2023-03-31T20:46:45.172Z,9.65
2023-03-31T20:49:13.079Z,9.65
2023-03-31T20:51:41.789Z,11.00
2023-03-31T20:54:09.235Z,10.60
2023-03-31T20:56:41.436Z,11.70
2023-03-31T20:59:12.638Z,11.35
2023-03-31T21:01:42.417Z,11.57
2023-03-31T21:04:11.648Z,10.25
2023-03-31T21:06:41.846Z,10.75
2023-03-31T21:09:09.751Z,10.82
2023-03-31T21:11:37.201Z,10.50
2023-03-31T21:14:06.215Z,12.27
2023-03-31T21:16:33.823Z,11.93
2023-03-31T21:19:01.409Z,11.30
2023-03-31T21:21:29.396Z,12.18
2023-03-31T21:23:56.919Z,11.30
2023-03-31T21:26:25.107Z,10.73
2023-03-31T21:28:56.614Z,10.50
2023-03-31T21:31:25.861Z,11.73
2023-03-31T21:33:56.670Z,12.85
2023-03-31T21:36:25.137Z,12.63
2023-03-31T21:38:54.099Z,12.27
2023-03-31T21:41:24.515Z,12.63
2023-03-31T21:43:52.207Z,10.82
2023-03-31T21:46:24.246Z,11.60
2023-03-31T21:48:52.014Z,12.32
2023-03-31T21:51:22.434Z,10.80
2023-03-31T21:54:03.801Z,11.32
2023-03-31T21:56:32.745Z,14.27
2023-03-31T21:59:01.481Z,14.55
2023-03-31T22:01:28.852Z,12.63
2023-03-31T22:03:56.370Z,11.40
2023-03-31T22:06:23.730Z,10.98
2023-03-31T22:08:51.759Z,11.07
2023-03-31T22:11:19.420Z,9.85
2023-03-31T22:13:47.909Z,12.40
2023-03-31T22:16:21.173Z,11.55
2023-03-31T22:18:50.447Z,11.13
2023-03-31T22:21:21.662Z,10.80
2023-03-31T22:23:55.245Z,9.93
2023-03-31T22:26:23.375Z,10.65
2023-03-31T22:28:50.938Z,10.02
2023-03-31T22:31:18.551Z,9.73
2023-03-31T22:33:46.587Z,9.57
2023-03-31T22:36:14.072Z,10.43
2023-03-31T22:38:41.989Z,9.27
2023-03-31T22:41:09.330Z,8.52
2023-03-31T22:46:39.181Z,8.07
2023-03-31T22:49:06.721Z,9.02
2023-03-31T22:51:34.926Z,8.40
2023-03-31T22:54:02.481Z,9.07
2023-03-31T22:56:29.946Z,8.43
2023-03-31T22:58:58.116Z,7.35
2023-03-31T23:01:25.607Z,8.63
2023-03-31T23:03:53.114Z,8.90
2023-03-31T23:06:20.586Z,9.23
2023-03-31T23:08:53.504Z,9.23
2023-03-31T23:11:21.031Z,9.40
2023-03-31T23:14:02.781Z,10.13
2023-03-31T23:16:32.148Z,9.70
2023-03-31T23:18:59.908Z,9.00
2023-03-31T23:21:28.761Z,8.50
2023-03-31T23:24:01.201Z,8.77
2023-03-31T23:26:30.282Z,9.18
2023-03-31T23:28:58.316Z,8.60
2023-03-31T23:31:31.342Z,8.25
2023-03-31T23:33:59.971Z,8.07
2023-03-31T23:36:28.300Z,8.75
2023-03-31T23:39:13.910Z,8.00
2023-03-31T23:45:19.144Z,8.77
2023-03-31T23:47:46.669Z,9.25
2023-03-31T23:50:14.084Z,9.60
2023-03-31T23:59:54.543Z,9.10
